Time;durP1;ratioP1;P1;durP2;ratioP2;P2;SDS_P1;SDS_P2;PMS_P1;PMS_P2;Temp;Humidity;BMP_temperature;BMP_pressure;BME280_temperature;BME280_humidity;BME280_pressure;Samples;Min_cycle;Max_cycle;Signal;HPM_P1;HPM_P2
2022/07/22 00:01:49;;;;;;;5.55;2.75;;;16.30;99.90;;;;;;5043394;28;20399;-72
2022/07/22 00:04:16;;;;;;;6.03;2.80;;;16.30;99.90;;;;;;5041416;28;20072;-72
2022/07/22 00:06:42;;;;;;;5.70;2.50;;;16.30;99.90;;;;;;5040504;28;20116;-72
2022/07/22 00:09:07;;;;;;;8.80;3.38;;;16.30;99.90;;;;;;5031252;28;20113;-72
2022/07/22 00:11:33;;;;;;;6.47;2.67;;;16.30;99.90;;;;;;5041174;28;20029;-72
2022/07/22 00:13:59;;;;;;;10.00;3.30;;;16.30;99.90;;;;;;5048402;28;20039;-72
2022/07/22 00:16:24;;;;;;;6.50;2.95;;;16.30;99.90;;;;;;5047679;28;20044;-72
2022/07/22 00:18:50;;;;;;;6.25;3.10;;;16.40;99.90;;;;;;5025894;28;20481;-72
2022/07/22 00:21:15;;;;;;;7.57;3.45;;;16.40;99.90;;;;;;5017775;28;20048;-72
2022/07/22 00:23:41;;;;;;;6.05;3.10;;;16.40;99.90;;;;;;5026135;28;20057;-72
2022/07/22 00:26:06;;;;;;;7.43;4.03;;;16.40;99.90;;;;;;5031052;28;20052;-72
2022/07/22 00:28:32;;;;;;;9.73;4.07;;;16.30;99.90;;;;;;5051731;28;20110;-73
2022/07/22 00:30:58;;;;;;;10.73;3.75;;;16.30;99.90;;;;;;5049954;28;20036;-72
2022/07/22 00:33:24;;;;;;;8.88;4.10;;;16.30;99.90;;;;;;5045185;28;20037;-72
2022/07/22 00:35:49;;;;;;;10.43;4.20;;;16.30;99.90;;;;;;5038533;28;20060;-72
2022/07/22 00:38:15;;;;;;;11.68;5.18;;;16.30;99.90;;;;;;5070117;22;20102;-69
2022/07/22 00:40:41;;;;;;;14.52;4.75;;;16.40;99.90;;;;;;5071306;28;20111;-69
2022/07/22 00:43:07;;;;;;;6.28;3.83;;;16.30;99.90;;;;;;5071416;28;20039;-69
2022/07/22 00:45:32;;;;;;;13.93;4.28;;;16.30;99.90;;;;;;5069290;28;20032;-69
2022/07/22 00:47:58;;;;;;;10.45;4.22;;;16.40;99.90;;;;;;5067932;28;20100;-69
2022/07/22 00:50:23;;;;;;;7.65;4.18;;;16.40;99.90;;;;;;5071672;28;20040;-69
2022/07/22 00:52:49;;;;;;;9.57;4.85;;;16.30;99.90;;;;;;5077106;28;20054;-69
2022/07/22 00:55:15;;;;;;;10.75;4.80;;;16.30;99.90;;;;;;5076935;28;20128;-69
2022/07/22 00:57:41;;;;;;;10.70;4.35;;;16.30;99.90;;;;;;5080841;28;20062;-69
2022/07/22 01:00:11;;;;;;;11.32;4.75;;;16.30;99.90;;;;;;5078186;28;20111;-69
2022/07/22 01:02:36;;;;;;;12.20;4.57;;;16.40;99.90;;;;;;5078055;28;20047;-69
2022/07/22 01:05:02;;;;;;;11.45;4.10;;;16.40;99.90;;;;;;5078088;28;20083;-69
2022/07/22 01:07:27;;;;;;;9.98;4.30;;;16.40;99.90;;;;;;5076403;28;20428;-69
2022/07/22 01:09:53;;;;;;;10.23;3.17;;;16.40;99.90;;;;;;5076467;28;20128;-69
2022/07/22 01:12:19;;;;;;;9.55;3.67;;;16.40;99.90;;;;;;5076333;28;20546;-68
2022/07/22 01:14:44;;;;;;;7.43;3.83;;;16.40;99.90;;;;;;5075643;28;20040;-68
2022/07/22 01:17:10;;;;;;;9.57;3.45;;;16.40;99.90;;;;;;5077623;28;20458;-68
2022/07/22 01:19:36;;;;;;;9.50;3.67;;;16.40;99.90;;;;;;5076818;28;20032;-68
2022/07/22 01:22:03;;;;;;;10.05;3.78;;;16.40;99.90;;;;;;5074305;28;20040;-70
2022/07/22 01:24:28;;;;;;;11.00;3.72;;;16.40;99.90;;;;;;5056424;28;20053;-69
2022/07/22 01:26:54;;;;;;;10.10;3.58;;;16.40;99.90;;;;;;5074221;28;20351;-69
2022/07/22 01:29:19;;;;;;;8.15;3.90;;;16.30;99.90;;;;;;5074280;28;20055;-69
2022/07/22 01:31:45;;;;;;;10.05;4.05;;;16.30;99.90;;;;;;5076909;28;20085;-69
2022/07/22 01:34:11;;;;;;;9.70;3.33;;;16.30;99.90;;;;;;5076857;28;20123;-69
2022/07/22 01:36:36;;;;;;;13.07;3.45;;;16.30;99.90;;;;;;5075584;28;20036;-69
2022/07/22 01:39:03;;;;;;;7.72;3.10;;;16.30;99.90;;;;;;5076916;28;20044;-69
2022/07/22 01:41:28;;;;;;;6.72;2.97;;;16.30;99.90;;;;;;5076788;28;20045;-70
2022/07/22 01:43:54;;;;;;;7.57;3.05;;;16.30;99.90;;;;;;5076710;28;20091;-69
2022/07/22 01:46:20;;;;;;;8.63;2.90;;;16.30;99.90;;;;;;5073996;28;20047;-69
2022/07/22 01:48:45;;;;;;;6.70;2.83;;;16.30;99.90;;;;;;5078545;28;20485;-69
2022/07/22 01:51:11;;;;;;;10.77;3.10;;;16.30;99.90;;;;;;5076476;28;20028;-69
2022/07/22 01:53:37;;;;;;;13.98;3.30;;;16.30;99.90;;;;;;5076013;28;20118;-69
2022/07/22 01:56:03;;;;;;;6.18;2.60;;;16.30;99.90;;;;;;5073757;28;20027;-69
2022/07/22 01:58:29;;;;;;;6.68;2.90;;;16.20;99.90;;;;;;5072839;28;20048;-69
2022/07/22 02:00:54;;;;;;;7.03;2.83;;;16.30;99.90;;;;;;5073403;28;20039;-69
2022/07/22 02:03:20;;;;;;;11.50;2.88;;;16.20;99.90;;;;;;5071551;28;20416;-69
2022/07/22 02:05:45;;;;;;;12.20;3.20;;;16.20;99.90;;;;;;5073141;28;20515;-69
2022/07/22 02:08:12;;;;;;;9.27;2.70;;;16.30;99.90;;;;;;5073158;28;20064;-69
2022/07/22 02:10:38;;;;;;;8.57;3.28;;;16.30;99.90;;;;;;5077364;28;20063;-69
2022/07/22 02:13:04;;;;;;;7.05;2.40;;;16.20;99.90;;;;;;5072997;28;20091;-69
2022/07/22 02:15:30;;;;;;;7.97;2.78;;;16.20;99.90;;;;;;5073775;28;20124;-69
2022/07/22 02:17:55;;;;;;;8.55;2.60;;;16.20;99.90;;;;;;5071044;28;20119;-69
2022/07/22 02:20:21;;;;;;;7.57;2.78;;;16.20;99.90;;;;;;5075794;28;20049;-69
2022/07/22 02:22:47;;;;;;;5.32;2.42;;;16.20;99.90;;;;;;5072850;28;20048;-69
2022/07/22 02:25:13;;;;;;;7.68;2.53;;;16.20;99.90;;;;;;5076667;28;20035;-69
2022/07/22 02:27:40;;;;;;;8.48;2.63;;;16.10;99.90;;;;;;5055509;28;20040;-69
2022/07/22 02:30:07;;;;;;;6.75;2.20;;;16.20;99.90;;;;;;5073795;28;20049;-69
2022/07/22 02:32:32;;;;;;;6.47;2.60;;;16.20;99.90;;;;;;5076184;28;20024;-69
2022/07/22 02:34:58;;;;;;;7.57;2.53;;;16.20;99.90;;;;;;5071562;28;20062;-69
2022/07/22 02:37:24;;;;;;;6.72;2.63;;;16.20;99.90;;;;;;5053911;28;20053;-69
2022/07/22 02:39:49;;;;;;;8.10;2.60;;;16.20;99.90;;;;;;5070068;28;20059;-70
2022/07/22 02:42:15;;;;;;;6.50;2.53;;;16.10;99.90;;;;;;5076437;28;20470;-69
2022/07/22 02:44:41;;;;;;;6.97;2.10;;;16.10;99.90;;;;;;5073478;28;20040;-69
2022/07/22 02:47:06;;;;;;;5.70;2.53;;;16.10;99.90;;;;;;5073304;28;20151;-69
2022/07/22 02:49:32;;;;;;;6.68;2.67;;;16.10;99.90;;;;;;5070961;28;20060;-69
2022/07/22 02:51:58;;;;;;;4.95;2.25;;;16.10;99.90;;;;;;5073231;28;20043;-69
2022/07/22 02:54:24;;;;;;;5.75;2.25;;;16.10;99.90;;;;;;5069658;28;20127;-69
2022/07/22 02:56:50;;;;;;;4.80;2.22;;;16.10;99.90;;;;;;5070915;28;20072;-69
2022/07/22 02:59:15;;;;;;;4.63;2.00;;;16.10;99.90;;;;;;5073289;28;20086;-69
2022/07/22 03:01:41;;;;;;;3.83;2.20;;;16.10;99.90;;;;;;5072662;28;20052;-69
2022/07/22 03:04:06;;;;;;;4.57;2.00;;;16.10;99.90;;;;;;5070784;28;20044;-69
2022/07/22 03:06:32;;;;;;;5.53;2.40;;;16.10;99.90;;;;;;5073032;28;20171;-69
2022/07/22 03:08:58;;;;;;;9.48;2.50;;;16.10;99.90;;;;;;5070099;28;20036;-69
2022/07/22 03:11:23;;;;;;;5.40;1.80;;;16.10;99.90;;;;;;5073169;28;20036;-69
2022/07/22 03:13:49;;;;;;;6.32;2.20;;;16.10;99.90;;;;;;5071327;28;20033;-69
2022/07/22 03:16:14;;;;;;;7.13;1.88;;;16.00;99.90;;;;;;5070803;28;20044;-70
2022/07/22 03:18:40;;;;;;;6.05;1.95;;;16.00;99.90;;;;;;5071896;28;20044;-69
2022/07/22 03:21:06;;;;;;;8.20;2.60;;;16.10;99.90;;;;;;5071787;28;20123;-69
2022/07/22 03:23:31;;;;;;;5.20;2.28;;;16.10;99.90;;;;;;5071433;28;20037;-69
2022/07/22 03:25:57;;;;;;;4.90;1.80;;;16.10;99.90;;;;;;5074993;28;20115;-69
2022/07/22 03:28:22;;;;;;;6.32;1.77;;;16.10;99.90;;;;;;5071539;28;20070;-69
2022/07/22 03:30:48;;;;;;;4.07;2.03;;;16.10;99.90;;;;;;5069702;28;20051;-69
2022/07/22 03:33:14;;;;;;;5.78;2.00;;;16.10;99.90;;;;;;5070469;28;20048;-69
2022/07/22 03:35:40;;;;;;;5.53;1.75;;;16.10;99.90;;;;;;5070198;28;20036;-70
2022/07/22 03:38:05;;;;;;;3.30;1.65;;;16.10;99.90;;;;;;5074380;28;20482;-69
2022/07/22 03:40:31;;;;;;;5.95;2.22;;;16.10;99.90;;;;;;5070720;28;20041;-69
2022/07/22 03:42:56;;;;;;;4.10;2.28;;;16.10;99.90;;;;;;5071655;28;20111;-69
2022/07/22 03:45:22;;;;;;;6.97;2.03;;;16.10;99.90;;;;;;5071630;28;20043;-69
2022/07/22 03:47:47;;;;;;;3.97;1.90;;;16.10;99.90;;;;;;5071760;28;20719;-70
2022/07/22 03:50:13;;;;;;;5.68;1.88;;;16.10;99.90;;;;;;5075182;28;20048;-70
2022/07/22 03:52:39;;;;;;;6.57;1.80;;;16.00;99.90;;;;;;5071255;28;20056;-70
2022/07/22 03:55:05;;;;;;;7.50;2.25;;;16.00;99.90;;;;;;5069685;28;20047;-70
2022/07/22 03:57:31;;;;;;;6.63;1.85;;;16.00;99.90;;;;;;5068544;28;20051;-69
2022/07/22 03:59:56;;;;;;;3.92;1.70;;;16.00;99.90;;;;;;5069988;28;20036;-69
2022/07/22 04:02:22;;;;;;;4.70;1.70;;;16.00;99.90;;;;;;5069432;28;20037;-69
2022/07/22 04:04:47;;;;;;;5.93;1.85;;;16.00;99.90;;;;;;5070484;28;20193;-70
2022/07/22 04:07:13;;;;;;;8.68;2.45;;;16.00;99.90;;;;;;5072002;28;20120;-70
2022/07/22 04:09:38;;;;;;;5.95;1.67;;;16.00;99.90;;;;;;5070816;28;20044;-70
2022/07/22 04:12:04;;;;;;;4.20;1.80;;;16.00;99.90;;;;;;5070276;28;20070;-70
2022/07/22 04:14:30;;;;;;;3.47;1.80;;;16.00;99.90;;;;;;5070017;28;20048;-69
2022/07/22 04:16:56;;;;;;;5.63;1.75;;;16.00;99.90;;;;;;5071780;28;20028;-69
2022/07/22 04:19:21;;;;;;;3.33;1.55;;;16.00;99.90;;;;;;5071912;28;20087;-70
2022/07/22 04:21:47;;;;;;;7.85;2.20;;;16.10;99.90;;;;;;5071404;28;20040;-70
2022/07/22 04:24:12;;;;;;;6.95;2.08;;;16.10;99.90;;;;;;5071417;28;20048;-70
2022/07/22 04:26:38;;;;;;;5.22;1.80;;;16.10;99.90;;;;;;5054692;28;20037;-69
2022/07/22 04:29:04;;;;;;;5.05;2.05;;;16.10;99.90;;;;;;5070435;28;20052;-69
2022/07/22 04:31:30;;;;;;;4.65;1.70;;;16.10;99.90;;;;;;5069129;28;20051;-70
2022/07/22 04:33:56;;;;;;;6.15;1.80;;;16.10;99.90;;;;;;5070309;28;20040;-70
2022/07/22 04:36:22;;;;;;;5.70;1.55;;;16.20;99.90;;;;;;5068315;28;20111;-69
2022/07/22 04:38:48;;;;;;;4.65;1.80;;;16.20;99.90;;;;;;5069909;28;20140;-70
2022/07/22 04:41:13;;;;;;;8.13;2.28;;;16.10;99.90;;;;;;5071417;28;20044;-69
2022/07/22 04:43:39;;;;;;;6.38;1.60;;;16.10;99.90;;;;;;5071608;28;20396;-70
2022/07/22 04:46:05;;;;;;;4.05;1.77;;;16.10;99.90;;;;;;5070094;28;20048;-70
2022/07/22 04:48:30;;;;;;;2.83;1.70;;;16.10;99.90;;;;;;5071406;28;20045;-69
2022/07/22 04:51:00;;;;;;;6.20;2.10;;;16.10;99.90;;;;;;5069448;28;20128;-69
2022/07/22 04:53:26;;;;;;;6.78;1.85;;;16.20;99.90;;;;;;5069307;28;20571;-69
2022/07/22 04:55:52;;;;;;;3.22;1.55;;;16.20;99.90;;;;;;5071302;28;20032;-69
2022/07/22 04:58:17;;;;;;;4.15;1.90;;;16.20;99.90;;;;;;5069495;28;20086;-69
2022/07/22 05:00:43;;;;;;;7.30;2.08;;;16.20;99.90;;;;;;5069548;28;20033;-69
2022/07/22 05:03:08;;;;;;;4.57;2.03;;;16.30;99.90;;;;;;5071293;28;20119;-69
2022/07/22 05:05:34;;;;;;;3.85;2.00;;;16.30;99.90;;;;;;5071213;28;20466;-69
2022/07/22 05:08:00;;;;;;;7.28;2.20;;;16.30;99.90;;;;;;5069925;28;20458;-70
2022/07/22 05:10:26;;;;;;;4.15;1.73;;;16.20;99.90;;;;;;5070866;28;20086;-70
2022/07/22 05:12:53;;;;;;;3.53;1.63;;;16.20;99.90;;;;;;5069583;28;20048;-70
2022/07/22 05:15:18;;;;;;;3.90;1.90;;;16.20;99.90;;;;;;5071122;28;20044;-70
2022/07/22 05:17:44;;;;;;;5.22;1.92;;;16.40;99.90;;;;;;5069357;28;20028;-70
2022/07/22 05:20:10;;;;;;;5.03;2.10;;;16.40;99.90;;;;;;5070142;28;20098;-70
2022/07/22 05:22:36;;;;;;;4.57;1.90;;;16.40;99.90;;;;;;5070023;28;20036;-69
2022/07/22 05:25:01;;;;;;;4.93;1.73;;;16.50;99.90;;;;;;5070144;28;20086;-69
2022/07/22 05:27:27;;;;;;;8.52;2.00;;;16.50;99.90;;;;;;5069896;28;20064;-70
2022/07/22 05:29:52;;;;;;;7.18;1.80;;;16.50;99.90;;;;;;5069709;28;20045;-70
2022/07/22 05:32:18;;;;;;;3.45;1.75;;;16.60;99.90;;;;;;5064888;28;20144;-70
2022/07/22 05:34:44;;;;;;;4.80;1.90;;;16.60;99.90;;;;;;5070910;28;20036;-70
2022/07/22 05:37:09;;;;;;;6.05;2.15;;;16.60;99.90;;;;;;5070122;28;20053;-70
2022/07/22 05:39:35;;;;;;;3.92;1.70;;;16.60;99.90;;;;;;5074545;28;20044;-70
2022/07/22 05:42:00;;;;;;;5.60;1.50;;;16.70;99.90;;;;;;5072825;28;20097;-70
2022/07/22 05:44:26;;;;;;;4.97;1.75;;;16.70;99.90;;;;;;5071564;28;20057;-70
2022/07/22 05:46:51;;;;;;;4.10;1.50;;;16.60;99.90;;;;;;5072779;28;20032;-70
2022/07/22 05:49:17;;;;;;;5.53;2.08;;;16.70;99.90;;;;;;5074488;28;20643;-70
2022/07/22 05:51:43;;;;;;;4.75;2.33;;;16.70;99.90;;;;;;5074085;28;20041;-70
2022/07/22 05:54:08;;;;;;;3.47;1.67;;;16.80;99.90;;;;;;5076569;28;20109;-70
2022/07/22 05:56:34;;;;;;;5.90;1.80;;;16.80;99.90;;;;;;5071398;28;20047;-70
2022/07/22 05:59:00;;;;;;;4.68;1.85;;;16.90;99.90;;;;;;5076451;28;20123;-70
2022/07/22 06:01:26;;;;;;;4.32;1.67;;;16.90;99.90;;;;;;5069292;28;20033;-69
2022/07/22 06:03:51;;;;;;;3.45;1.27;;;16.90;99.90;;;;;;5071396;28;20074;-69
2022/07/22 06:06:17;;;;;;;2.75;1.30;;;17.10;99.90;;;;;;5074029;28;20048;-69
2022/07/22 06:08:43;;;;;;;6.63;2.00;;;17.30;99.90;;;;;;5054676;28;20058;-70
2022/07/22 06:11:08;;;;;;;4.53;1.70;;;17.40;99.90;;;;;;5072669;28;20072;-69
2022/07/22 06:13:34;;;;;;;4.57;1.45;;;17.50;99.90;;;;;;5056783;28;20113;-69
2022/07/22 06:15:59;;;;;;;4.53;1.73;;;17.50;99.90;;;;;;5071867;28;20041;-69
2022/07/22 06:18:25;;;;;;;4.60;1.77;;;17.50;99.90;;;;;;5075803;28;20040;-70
2022/07/22 06:20:51;;;;;;;5.53;1.60;;;17.50;99.90;;;;;;5064693;28;20037;-69
2022/07/22 06:23:17;;;;;;;4.30;1.67;;;17.50;99.90;;;;;;5066975;28;20124;-70
2022/07/22 06:25:42;;;;;;;3.75;1.70;;;17.40;99.90;;;;;;5063705;28;20067;-69
2022/07/22 06:28:09;;;;;;;4.95;1.50;;;17.40;99.90;;;;;;5066257;28;20044;-69
2022/07/22 06:30:34;;;;;;;6.82;1.63;;;17.50;99.90;;;;;;5066698;28;20507;-68
2022/07/22 06:33:00;;;;;;;10.32;3.80;;;17.50;99.90;;;;;;5073610;28;20037;-68
2022/07/22 06:35:25;;;;;;;4.97;1.50;;;17.50;99.90;;;;;;5066788;28;20033;-68
2022/07/22 06:37:51;;;;;;;7.28;2.47;;;17.50;99.90;;;;;;5052097;28;20080;-68
2022/07/22 06:40:17;;;;;;;6.50;1.90;;;17.60;99.90;;;;;;5055880;28;20665;-69
2022/07/22 06:42:42;;;;;;;5.43;1.80;;;17.60;99.90;;;;;;5088498;28;20039;-68
2022/07/22 06:45:08;;;;;;;6.13;1.90;;;17.60;99.90;;;;;;5071924;28;20186;-68
2022/07/22 06:47:35;;;;;;;4.13;1.67;;;17.70;99.90;;;;;;5071482;28;20044;-68
2022/07/22 06:50:06;;;;;;;5.72;1.95;;;17.80;99.90;;;;;;5071851;28;20382;-68
2022/07/22 06:52:32;;;;;;;6.95;2.58;;;17.90;99.90;;;;;;5071493;28;20402;-68
2022/07/22 06:54:58;;;;;;;9.82;3.15;;;18.00;99.90;;;;;;5072808;28;20096;-68
2022/07/22 06:57:23;;;;;;;5.28;1.75;;;18.10;99.90;;;;;;5072048;28;20504;-68
2022/07/22 06:59:50;;;;;;;4.93;1.70;;;18.20;99.90;;;;;;5072965;28;20121;-69
2022/07/22 07:02:15;;;;;;;5.43;1.60;;;18.30;99.90;;;;;;5072395;28;20067;-68
2022/07/22 07:04:41;;;;;;;4.80;1.40;;;18.40;99.90;;;;;;5070432;28;20036;-69
2022/07/22 07:07:08;;;;;;;8.20;1.95;;;18.50;99.90;;;;;;5072875;28;20102;-69
2022/07/22 07:09:33;;;;;;;18.92;5.70;;;18.50;99.90;;;;;;5070569;28;20037;-69
2022/07/22 07:11:59;;;;;;;4.30;1.23;;;18.60;99.90;;;;;;5072521;28;20035;-69
2022/07/22 07:14:24;;;;;;;6.63;2.00;;;18.60;99.90;;;;;;5069965;28;20037;-69
2022/07/22 07:16:50;;;;;;;4.85;1.55;;;18.70;99.90;;;;;;5047337;28;20071;-68
2022/07/22 07:19:16;;;;;;;4.13;1.50;;;18.70;99.90;;;;;;5071230;28;20436;-68
2022/07/22 07:21:41;;;;;;;6.97;1.52;;;18.80;99.90;;;;;;5071385;28;20335;-68
2022/07/22 07:24:07;;;;;;;8.48;1.63;;;18.90;99.90;;;;;;5069187;28;20110;-68
2022/07/22 07:26:32;;;;;;;6.47;1.70;;;19.00;99.90;;;;;;5070386;28;20462;-68
2022/07/22 07:28:58;;;;;;;5.03;1.30;;;18.90;99.90;;;;;;5071888;28;20055;-68
2022/07/22 07:31:23;;;;;;;4.80;1.30;;;19.00;99.90;;;;;;5073079;28;20466;-68
2022/07/22 07:33:50;;;;;;;5.15;1.50;;;19.10;99.90;;;;;;5072479;28;20119;-68
2022/07/22 07:36:15;;;;;;;3.17;1.30;;;19.10;99.90;;;;;;5072179;28;20036;-68
2022/07/22 07:38:41;;;;;;;4.57;1.55;;;19.10;99.90;;;;;;5070767;28;20064;-68
2022/07/22 07:41:07;;;;;;;5.38;1.40;;;19.10;99.90;;;;;;5072591;28;20067;-68
2022/07/22 07:43:33;;;;;;;5.45;1.35;;;19.10;99.90;;;;;;5072044;28;20052;-68
2022/07/22 07:45:59;;;;;;;4.55;1.27;;;19.10;99.90;;;;;;5072663;28;20036;-68
2022/07/22 07:48:24;;;;;;;3.58;1.40;;;19.10;99.90;;;;;;5071249;28;20040;-68
2022/07/22 07:50:50;;;;;;;5.28;1.40;;;19.10;99.90;;;;;;5072764;28;20394;-69
2022/07/22 07:53:17;;;;;;;4.53;1.30;;;19.20;99.90;;;;;;5072420;28;20170;-69
2022/07/22 07:55:42;;;;;;;4.78;1.40;;;19.30;99.90;;;;;;5071590;28;20036;-68
2022/07/22 07:58:08;;;;;;;4.30;1.50;;;19.30;99.90;;;;;;5072404;28;20055;-68
2022/07/22 08:00:35;;;;;;;3.45;1.40;;;19.40;99.90;;;;;;5071733;28;20120;-68
2022/07/22 08:03:02;;;;;;;6.35;1.70;;;19.50;99.90;;;;;;5071886;28;20076;-68
2022/07/22 08:05:28;;;;;;;5.03;1.70;;;19.60;99.90;;;;;;5071469;28;20036;-68
2022/07/22 08:07:54;;;;;;;5.88;1.50;;;19.60;99.90;;;;;;5071574;28;20394;-68
2022/07/22 08:10:19;;;;;;;6.10;1.15;;;19.60;99.90;;;;;;5071192;28;20131;-68
2022/07/22 08:12:45;;;;;;;3.33;1.30;;;19.70;99.90;;;;;;5069322;28;20050;-68
2022/07/22 08:15:11;;;;;;;6.53;1.45;;;19.70;99.90;;;;;;5071099;28;20047;-68
2022/07/22 08:17:37;;;;;;;3.95;1.20;;;19.40;99.90;;;;;;5077261;28;20043;-69
2022/07/22 08:20:05;;;;;;;6.40;1.23;;;19.50;99.90;;;;;;5068527;28;20425;-68
2022/07/22 08:22:31;;;;;;;5.80;1.30;;;19.40;99.90;;;;;;5071356;28;20072;-68
2022/07/22 08:24:56;;;;;;;4.65;1.67;;;19.40;99.90;;;;;;5072273;28;20071;-68
2022/07/22 08:27:22;;;;;;;3.95;1.30;;;19.40;99.90;;;;;;5072039;28;20071;-68
2022/07/22 08:29:47;;;;;;;3.50;2.08;;;19.10;99.90;;;;;;5071013;28;20558;-68
2022/07/22 08:32:13;;;;;;;3.92;1.58;;;19.20;99.90;;;;;;5069657;28;20033;-68
2022/07/22 08:34:39;;;;;;;6.10;1.65;;;19.20;99.90;;;;;;5069657;28;20450;-68
2022/07/22 08:37:04;;;;;;;6.15;1.58;;;19.10;99.90;;;;;;5067257;28;20048;-68
2022/07/22 08:39:30;;;;;;;3.05;1.10;;;19.10;99.90;;;;;;5057487;28;20049;-68
2022/07/22 08:41:57;;;;;;;4.03;1.20;;;18.90;99.90;;;;;;5052149;28;20040;-68
2022/07/22 08:44:23;;;;;;;3.60;1.48;;;19.00;99.90;;;;;;5051826;28;20041;-68
2022/07/22 08:46:49;;;;;;;4.13;1.45;;;19.10;99.90;;;;;;5069667;28;20048;-68
2022/07/22 08:49:16;;;;;;;3.72;1.10;;;19.10;99.90;;;;;;5070562;28;20045;-68
2022/07/22 08:51:42;;;;;;;3.47;1.05;;;19.10;99.90;;;;;;5064178;28;20119;-68
2022/07/22 08:54:08;;;;;;;5.85;1.20;;;19.00;99.90;;;;;;5069343;28;20091;-68
2022/07/22 08:56:33;;;;;;;4.10;1.60;;;19.00;99.90;;;;;;5070425;28;20537;-68
2022/07/22 08:58:59;;;;;;;7.20;1.60;;;19.10;99.90;;;;;;5068937;28;20048;-68
2022/07/22 09:01:24;;;;;;;5.65;1.20;;;19.10;99.90;;;;;;5070065;28;20044;-68
2022/07/22 09:03:55;;;;;;;4.05;1.27;;;19.20;99.90;;;;;;5067089;28;20040;-68
2022/07/22 09:06:22;;;;;;;2.78;1.20;;;19.20;99.90;;;;;;5071099;28;20036;-68
2022/07/22 09:08:59;;;;;;;2.85;1.10;;;19.30;99.90;;;;;;5065119;28;20055;-68
2022/07/22 09:11:28;;;;;;;4.53;1.55;;;19.30;99.90;;;;;;5066188;28;20074;-68
2022/07/22 09:13:55;;;;;;;4.10;1.10;;;19.40;99.90;;;;;;5074642;28;20176;-68
2022/07/22 09:16:43;;;;;;;4.35;1.00;;;19.60;99.90;;;;;;5073871;28;20044;-68
2022/07/22 09:19:09;;;;;;;3.10;1.23;;;19.70;99.90;;;;;;5074555;28;20645;-68
2022/07/22 09:21:37;;;;;;;2.45;1.13;;;19.80;99.90;;;;;;5073446;28;20036;-68
2022/07/22 09:24:04;;;;;;;4.82;1.65;;;19.90;99.90;;;;;;5075392;28;20036;-68
2022/07/22 09:26:39;;;;;;;5.32;1.30;;;19.90;99.90;;;;;;5075076;28;20123;-68
2022/07/22 09:29:06;;;;;;;4.20;1.42;;;20.10;99.90;;;;;;5073155;28;20090;-68
2022/07/22 09:31:34;;;;;;;3.63;1.23;;;20.10;99.90;;;;;;5070438;28;20601;-68
2022/07/22 09:34:00;;;;;;;4.30;1.35;;;20.10;99.90;;;;;;5071279;28;20036;-68
2022/07/22 09:36:26;;;;;;;4.25;1.20;;;20.10;99.90;;;;;;5063428;28;20403;-68
2022/07/22 09:38:53;;;;;;;3.50;1.25;;;20.10;99.90;;;;;;5072897;28;20098;-68
2022/07/22 09:41:18;;;;;;;3.42;1.38;;;20.10;99.90;;;;;;5073851;28;20657;-68
2022/07/22 09:43:45;;;;;;;3.40;1.20;;;20.10;99.90;;;;;;5069648;28;20051;-68
2022/07/22 09:46:11;;;;;;;3.78;1.00;;;20.10;99.90;;;;;;5053835;28;20123;-68
2022/07/22 09:48:38;;;;;;;5.18;0.98;;;20.00;99.90;;;;;;5067010;28;20132;-69
2022/07/22 09:51:05;;;;;;;3.35;1.27;;;19.90;99.90;;;;;;5071831;28;20051;-68
2022/07/22 09:53:31;;;;;;;4.07;1.30;;;19.90;99.90;;;;;;5074230;28;20051;-68
2022/07/22 09:55:58;;;;;;;4.30;1.27;;;19.80;99.90;;;;;;5069206;28;20116;-68
2022/07/22 09:58:25;;;;;;;4.18;1.30;;;19.80;99.90;;;;;;5065943;28;20032;-66
2022/07/22 10:00:52;;;;;;;3.92;0.95;;;19.80;99.90;;;;;;5069665;28;20462;-68
2022/07/22 10:03:29;;;;;;;4.93;1.20;;;19.60;99.90;;;;;;5072830;28;20040;-68
2022/07/22 10:05:56;;;;;;;4.68;1.30;;;19.60;99.90;;;;;;5072097;28;20165;-68
2022/07/22 10:08:24;;;;;;;5.65;1.45;;;19.50;99.90;;;;;;5071114;28;20046;-68
2022/07/22 10:10:51;;;;;;;4.45;1.52;;;19.30;99.90;;;;;;5071929;28;20032;-68
2022/07/22 10:13:18;;;;;;;5.57;1.20;;;19.40;99.90;;;;;;5073519;28;20079;-68
2022/07/22 10:15:44;;;;;;;4.47;1.25;;;19.40;99.90;;;;;;5073971;28;20747;-68
2022/07/22 10:18:16;;;;;;;4.10;1.30;;;19.40;99.90;;;;;;5073891;28;20055;-69
2022/07/22 10:20:41;;;;;;;6.15;1.60;;;19.50;99.90;;;;;;5072233;28;20071;-69
2022/07/22 10:23:09;;;;;;;4.70;1.38;;;19.50;99.90;;;;;;5072922;28;20430;-69
2022/07/22 10:25:53;;;;;;;4.32;1.30;;;19.50;99.90;;;;;;5073752;28;20040;-69
2022/07/22 10:28:28;;;;;;;4.07;1.27;;;19.40;99.90;;;;;;5061403;28;20504;-69
2022/07/22 10:31:17;;;;;;;7.25;1.17;;;19.30;99.90;;;;;;5062971;28;20087;-69
2022/07/22 10:33:49;;;;;;;4.65;1.20;;;19.30;99.90;;;;;;5071605;28;20040;-68
2022/07/22 10:36:28;;;;;;;6.95;1.23;;;19.30;99.90;;;;;;5074150;28;20040;-69
2022/07/22 10:39:10;;;;;;;2.92;1.20;;;19.20;99.90;;;;;;5059271;28;20064;-68
2022/07/22 10:41:39;;;;;;;3.47;0.98;;;19.20;99.90;;;;;;5069608;28;20056;-69
2022/07/22 10:44:06;;;;;;;2.50;0.88;;;19.20;99.90;;;;;;5054108;28;20112;-69
2022/07/22 10:46:51;;;;;;;5.82;1.20;;;19.30;99.90;;;;;;5052508;28;20040;-69
2022/07/22 10:49:19;;;;;;;4.15;0.90;;;19.40;99.90;;;;;;5054001;28;20425;-69
2022/07/22 10:52:08;;;;;;;3.28;0.82;;;19.60;99.90;;;;;;5052433;28;20479;-69
2022/07/22 10:54:54;;;;;;;2.92;0.88;;;19.80;99.90;;;;;;5052603;28;20072;-68
2022/07/22 10:57:32;;;;;;;2.95;0.95;;;19.80;99.90;;;;;;5057835;28;20048;-68
2022/07/22 10:59:58;;;;;;;1.48;0.88;;;20.00;99.90;;;;;;5071419;28;20123;-68
2022/07/22 11:02:26;;;;;;;3.17;0.95;;;20.10;99.90;;;;;;5072801;28;20787;-68
2022/07/22 11:04:54;;;;;;;2.45;0.90;;;20.20;99.90;;;;;;5085938;28;20111;-68
2022/07/22 11:07:20;;;;;;;3.72;0.85;;;20.10;99.90;;;;;;5070956;28;20044;-68
2022/07/22 11:09:46;;;;;;;4.15;1.27;;;20.10;99.90;;;;;;5073373;28;20059;-68
2022/07/22 11:12:14;;;;;;;2.95;1.02;;;20.00;99.90;;;;;;5070181;28;20037;-68
2022/07/22 11:14:40;;;;;;;2.22;1.17;;;20.10;99.90;;;;;;5071592;28;20037;-69
2022/07/22 11:17:10;;;;;;;3.42;1.08;;;20.30;99.90;;;;;;5071855;28;20037;-69
2022/07/22 11:19:37;;;;;;;1.73;0.90;;;20.30;99.90;;;;;;5071856;28;20044;-69
2022/07/22 11:22:11;;;;;;;1.98;1.05;;;20.50;99.90;;;;;;5068550;28;20044;-69
2022/07/22 11:24:37;;;;;;;2.50;0.85;;;20.70;99.90;;;;;;5069652;28;20159;-69
2022/07/22 11:27:04;;;;;;;4.82;1.10;;;21.00;99.90;;;;;;5070957;28;20047;-69
2022/07/22 11:29:39;;;;;;;2.65;0.90;;;21.20;99.90;;;;;;5068461;28;20032;-69
2022/07/22 11:32:08;;;;;;;1.88;0.63;;;21.30;99.00;;;;;;5067692;28;20144;-69
2022/07/22 11:34:37;;;;;;;2.33;0.80;;;21.40;99.10;;;;;;5071124;28;20056;-69
2022/07/22 11:37:03;;;;;;;1.38;0.70;;;21.60;99.10;;;;;;5054349;28;20091;-69
2022/07/22 11:39:29;;;;;;;1.85;0.80;;;21.60;95.50;;;;;;5070576;28;20084;-69
2022/07/22 11:41:59;;;;;;;4.60;1.02;;;21.30;96.80;;;;;;5070717;28;20094;-69
2022/07/22 11:44:27;;;;;;;2.90;0.93;;;21.40;98.10;;;;;;5066129;28;20538;-69
2022/07/22 11:46:54;;;;;;;3.33;0.90;;;21.40;97.60;;;;;;5070710;28;20086;-69
2022/07/22 11:49:21;;;;;;;1.75;0.88;;;21.40;98.30;;;;;;5049734;28;20406;-69
2022/07/22 11:51:47;;;;;;;2.70;0.80;;;21.30;98.40;;;;;;5064466;28;20051;-68
2022/07/22 11:54:13;;;;;;;2.33;0.80;;;21.00;97.90;;;;;;5068147;28;20045;-69
2022/07/22 11:56:40;;;;;;;1.67;0.80;;;21.00;99.10;;;;;;5052576;28;20092;-68
2022/07/22 11:59:07;;;;;;;1.85;0.88;;;21.00;99.30;;;;;;5070429;28;20124;-69
2022/07/22 12:01:35;;;;;;;1.13;0.70;;;20.90;99.50;;;;;;5070907;28;20041;-69
2022/07/22 12:04:10;;;;;;;2.15;1.20;;;20.90;99.00;;;;;;5070157;28;20047;-69
2022/07/22 12:06:39;;;;;;;1.90;0.90;;;20.80;98.80;;;;;;5065406;28;20052;-69
2022/07/22 12:09:16;;;;;;;4.53;0.95;;;20.80;99.60;;;;;;5068334;28;20045;-69
2022/07/22 12:11:44;;;;;;;3.17;0.95;;;20.80;98.20;;;;;;5069945;28;20041;-69
2022/07/22 12:14:11;;;;;;;1.25;0.80;;;20.80;99.30;;;;;;5064446;28;20111;-69
2022/07/22 12:16:37;;;;;;;1.20;0.77;;;20.80;98.60;;;;;;5061430;28;20029;-69
2022/07/22 12:19:04;;;;;;;2.08;0.95;;;20.50;97.80;;;;;;5066201;28;20090;-69
2022/07/22 12:21:56;;;;;;;1.77;0.77;;;20.70;98.40;;;;;;5067989;28;20044;-69
2022/07/22 12:24:43;;;;;;;2.65;0.80;;;20.80;96.60;;;;;;5050660;28;20052;-69
2022/07/22 12:27:10;;;;;;;3.33;1.00;;;20.90;98.20;;;;;;5052631;28;20041;-69
2022/07/22 12:29:36;;;;;;;1.80;0.90;;;20.90;98.60;;;;;;5068784;28;20055;-69
2022/07/22 12:32:24;;;;;;;2.42;1.10;;;21.00;99.00;;;;;;5070512;28;20033;-69
2022/07/22 12:34:58;;;;;;;2.95;0.90;;;20.90;97.90;;;;;;5055628;28;20045;-69
2022/07/22 12:37:27;;;;;;;2.17;1.05;;;21.00;98.20;;;;;;5064587;28;20339;-69
2022/07/22 12:39:54;;;;;;;2.58;0.95;;;21.00;98.30;;;;;;5049806;28;20051;-69
2022/07/22 12:42:20;;;;;;;3.88;0.90;;;21.10;98.50;;;;;;5069444;28;20080;-69
2022/07/22 12:45:05;;;;;;;1.88;1.00;;;21.20;98.40;;;;;;5071453;28;20429;-69